Parkman, Wyoming
Current Conditions -  °F | °C
As of 12:53 PM on Sunday 21 Dec 2014 (Local Time) from KSHR Reporting Station
Clear Clear  
Wind Chill: 43°   Ceiling: Unl
Heat Index: 45°   Visibility: 10mi
Dew Point: 33°   Wind: 5mph
Humidity: 63%   Direction: 130°SE
Pressure: 29.39"   Gusts: NA
Location:  44.96°N, 107.33°W
Report Text: KSHR 211953Z AUTO 13004KT 10SM CLR 07/01 A2939 RMK AO2 SLP967 T00720006
Loading
Personal Weather Stations






























Interactive Weather Map New forecast layout! Learn more

10-Day Weather Forecast

Advertisements
Track Severe Weather on mobile